메인 페이지
METAR-TAF:

METAR-TAF

공항 :

애틀랜타, 조지아, 미국

하츠필드 잭슨 애틀랜타 국제공항

위도: 33-38-25N, 경도: 084-25-37W, 고도: 313m

현재 날씨관측

예보는 46분 전, 09:52시(UTC)에 발표되었습니다.
서북서7kt
온도 13°C
습도 94%
기압 1012 hPa
시정: 16.1km
고도 2200ft 상공 구름 조금
고도 5000ft 상공 구름 조금

METAR: KATL 250952Z COR 29007KT 10SM FEW022 FEW050 13/12 A2988 RMK AO2 SLP115 T01280122

시각: 06:38 (10:38 UTC)

예보

예보는 59분 전, 09:39시(UTC)에 발표되었습니다.
예보 대상 시간: 25일 10시부터 26일 12시까지 (UTC)
서북서7kt
시정: 10km
고도 2500ft 상공 구름 보통
고도 4500ft 상공 구름 보통
일시적
25일 10시부터 25일 12시까지 (UTC)
고도 4500ft 상공 구름 많음
25일 1200시부터 (UTC)
서북서11kt
시정: 10km
고도 2500ft 상공 구름 많음
25일 1600시부터 (UTC)
북서13kt, 순간 최대 풍속 21kt
시정: 10km
고도 3500ft 상공 구름 많음
25일 2100시부터 (UTC)
북서13kt, 순간 최대 풍속 20kt
시정: 10km
고도 4500ft 상공 구름 보통
26일 0000시부터 (UTC)
북서6kt
시정: 10km
고도 25000ft 상공 구름 보통
26일 1100시부터 (UTC)
북동3kt
시정: 10km
고도 12000ft 상공 구름 많음

TAF: KATL 250939Z 2510/2612 29007KT P6SM SCT025 SCT045 TEMPO 2510/2512 BKN045 FM251200 30011KT P6SM BKN025 FM251600 31013G21KT P6SM BKN035 FM252100 31013G20KT P6SM SCT045 FM260000 32006KT P6SM SCT250 FM261100 05003KT P6SM BKN120

4,000개 이상의 공항 관측 자료 및 예보 (METAR 및 TAF 보고).

지도상에서 검색 가능한 기상관측소가 노란 점과 빨간 점으로 표시되어 있습니다.

기상관측소 명을 보려면 표시 위로 마우스를 이동하세요.

날씨 관측과 예보를 보려면 클릭하세요.

지도 변경 : 확대하려면 엑스 표시가 있는 녹색 버튼, 축소하려면 빼기 표시가 있는 녹색 버튼, 다음 페이지의 지도를 보려면 녹색 화살표를 클릭하세요.


METAR-TAF: